createdAt,value
2018-06-09T00:01:27.720Z,119.97
2018-06-09T00:03:56.047Z,114.00
2018-06-09T00:06:24.391Z,110.80
2018-06-09T00:08:52.720Z,112.17
2018-06-09T00:11:21.075Z,124.17
2018-06-09T00:13:49.399Z,106.37
2018-06-09T00:16:17.751Z,114.40
2018-06-09T00:18:46.079Z,105.23
2018-06-09T00:21:14.439Z,113.90
2018-06-09T00:23:42.807Z,104.63
2018-06-09T00:26:11.132Z,105.30
2018-06-09T00:28:39.479Z,113.87
2018-06-09T00:31:07.831Z,125.37
2018-06-09T00:33:36.278Z,120.90
2018-06-09T00:36:04.611Z,117.50
2018-06-09T00:38:32.963Z,118.27
2018-06-09T00:41:01.450Z,103.93
2018-06-09T00:43:29.799Z,113.57
2018-06-09T00:45:58.138Z,115.57
2018-06-09T00:48:26.633Z,117.43
2018-06-09T00:50:54.951Z,112.93
2018-06-09T00:53:23.298Z,121.43
2018-06-09T00:55:56.986Z,116.17
2018-06-09T00:58:25.331Z,125.53
2018-06-09T01:00:53.657Z,110.27
2018-06-09T01:03:21.999Z,114.33
2018-06-09T01:05:50.088Z,117.27
2018-06-09T01:08:18.415Z,110.23
2018-06-09T01:10:46.734Z,115.50
2018-06-09T01:13:15.071Z,125.90
2018-06-09T01:15:43.391Z,111.50
2018-06-09T01:18:11.736Z,133.13
2018-06-09T01:20:40.059Z,153.03
2018-06-09T01:23:08.411Z,154.97
2018-06-09T01:25:36.735Z,159.33
2018-06-09T01:28:05.095Z,156.70
2018-06-09T01:30:33.419Z,155.43
2018-06-09T01:33:01.763Z,153.80
2018-06-09T01:35:30.087Z,156.27
2018-06-09T01:37:58.439Z,160.97
2018-06-09T01:40:26.767Z,185.47
2018-06-09T01:42:55.110Z,193.07
2018-06-09T01:45:23.463Z,188.67
2018-06-09T01:47:51.859Z,183.00
2018-06-09T01:50:20.191Z,182.87
2018-06-09T01:52:48.555Z,187.10
2018-06-09T01:55:16.882Z,210.50
2018-06-09T01:57:45.239Z,210.20
2018-06-09T02:00:13.590Z,203.43
2018-06-09T02:02:41.943Z,204.07
2018-06-09T02:05:10.275Z,207.77
2018-06-09T02:07:38.630Z,203.13
2018-06-09T02:10:06.971Z,209.93
2018-06-09T02:12:35.331Z,204.80
2018-06-09T02:15:03.671Z,191.13
2018-06-09T02:17:32.040Z,206.50
2018-06-09T02:20:00.367Z,213.90
2018-06-09T02:22:28.719Z,198.30
2018-06-09T02:24:57.059Z,199.93
2018-06-09T02:27:25.414Z,204.90
2018-06-09T02:29:53.747Z,192.00
2018-06-09T02:32:22.311Z,200.17
2018-06-09T02:34:50.672Z,196.00
2018-06-09T02:37:19.005Z,194.17
2018-06-09T02:39:47.355Z,200.80
2018-06-09T02:42:15.687Z,183.43
2018-06-09T02:44:44.039Z,202.50
2018-06-09T02:47:12.436Z,194.93
2018-06-09T02:49:40.783Z,183.17
2018-06-09T02:52:09.115Z,198.80
2018-06-09T02:54:37.475Z,187.73
2018-06-09T02:57:05.815Z,191.40
2018-06-09T02:59:34.175Z,197.17
2018-06-09T03:02:03.265Z,195.00
2018-06-09T03:04:31.631Z,186.30
2018-06-09T03:06:59.987Z,196.67
2018-06-09T03:09:28.346Z,191.70
2018-06-09T03:11:56.676Z,185.43
2018-06-09T03:14:25.027Z,176.53
2018-06-09T03:16:53.363Z,170.90
2018-06-09T03:19:21.718Z,175.20
2018-06-09T03:21:50.070Z,176.83
2018-06-09T03:24:18.426Z,174.30
2018-06-09T03:26:46.758Z,169.80
2018-06-09T03:29:15.111Z,162.83
2018-06-09T03:31:43.451Z,166.37
2018-06-09T03:34:11.807Z,182.63
2018-06-09T03:36:40.139Z,175.67
2018-06-09T03:39:08.827Z,176.00
2018-06-09T03:41:37.163Z,160.60
2018-06-09T03:44:05.548Z,162.23
2018-06-09T03:46:33.907Z,153.33
2018-06-09T03:49:02.262Z,165.20
2018-06-09T03:51:30.631Z,169.77
2018-06-09T03:53:58.990Z,172.00
2018-06-09T03:56:27.338Z,178.57
2018-06-09T03:58:55.687Z,174.40
2018-06-09T04:01:24.015Z,167.33
2018-06-09T04:03:52.375Z,162.80
2018-06-09T04:06:20.707Z,164.77
2018-06-09T04:08:49.113Z,178.23
2018-06-09T04:11:17.419Z,186.10
2018-06-09T04:13:45.778Z,167.97
2018-06-09T04:16:14.119Z,165.40
2018-06-09T04:18:42.487Z,158.37
2018-06-09T04:21:10.814Z,161.17
2018-06-09T04:23:39.167Z,171.30
2018-06-09T04:26:07.503Z,177.07
2018-06-09T04:28:35.854Z,181.63
2018-06-09T04:31:04.187Z,200.70
2018-06-09T04:33:32.563Z,188.23
2018-06-09T04:36:00.896Z,176.67
2018-06-09T04:38:29.235Z,182.73
2018-06-09T04:40:57.672Z,167.37
2018-06-09T04:43:26.036Z,165.63
2018-06-09T04:45:54.430Z,175.73
2018-06-09T04:48:22.768Z,172.47
2018-06-09T04:50:51.123Z,181.10
2018-06-09T04:53:19.455Z,185.40
2018-06-09T04:55:47.807Z,179.07
2018-06-09T04:58:16.139Z,175.50
2018-06-09T05:00:44.494Z,175.27
2018-06-09T05:03:12.823Z,187.70
2018-06-09T05:05:41.179Z,178.37
2018-06-09T05:08:09.528Z,176.27
2018-06-09T05:10:37.879Z,175.37
2018-06-09T05:13:06.211Z,168.97
2018-06-09T05:15:34.296Z,170.00
2018-06-09T05:18:02.623Z,162.17
2018-06-09T05:20:30.980Z,165.10
2018-06-09T05:22:59.323Z,154.13
2018-06-09T05:25:27.680Z,151.07
2018-06-09T05:27:56.019Z,157.60
2018-06-09T05:30:24.373Z,153.13
2018-06-09T05:32:52.707Z,159.10
2018-06-09T05:35:21.055Z,159.47
2018-06-09T05:37:49.398Z,149.63
2018-06-09T05:40:17.751Z,142.50
2018-06-09T05:42:46.090Z,145.20
2018-06-09T05:45:14.459Z,147.90
2018-06-09T05:47:42.779Z,152.47
2018-06-09T05:50:11.117Z,152.70
2018-06-09T05:52:39.443Z,154.67
2018-06-09T05:55:07.795Z,145.83
2018-06-09T05:57:36.127Z,146.57
2018-06-09T06:00:04.854Z,148.97
2018-06-09T06:02:33.183Z,152.87
2018-06-09T06:05:01.523Z,141.50
2018-06-09T06:07:29.849Z,156.80
2018-06-09T06:09:58.191Z,141.40
2018-06-09T06:12:26.519Z,143.40
2018-06-09T06:14:54.874Z,149.77
2018-06-09T06:17:23.193Z,154.60
2018-06-09T06:19:51.543Z,138.10
2018-06-09T06:22:19.867Z,133.77
2018-06-09T06:24:48.207Z,148.10
2018-06-09T06:27:16.539Z,143.23
2018-06-09T06:29:44.875Z,175.33
2018-06-09T06:32:13.203Z,172.23
2018-06-09T06:34:41.526Z,161.13
2018-06-09T06:37:09.873Z,154.70
2018-06-09T06:39:38.204Z,182.07
2018-06-09T06:42:06.560Z,158.93
2018-06-09T06:44:34.907Z,153.13
2018-06-09T06:47:03.343Z,154.10
2018-06-09T06:49:31.663Z,172.00
2018-06-09T06:52:00.009Z,164.87
2018-06-09T06:54:28.339Z,165.53
2018-06-09T06:56:56.689Z,157.37
2018-06-09T06:59:25.019Z,167.77
2018-06-09T07:01:53.375Z,156.47
2018-06-09T07:04:21.711Z,170.50
2018-06-09T07:06:50.055Z,145.03
2018-06-09T07:09:18.383Z,165.00
2018-06-09T07:11:46.729Z,179.97
2018-06-09T07:14:15.058Z,177.73
2018-06-09T07:16:44.035Z,164.87
2018-06-09T07:19:12.375Z,167.90
2018-06-09T07:21:40.728Z,162.13
2018-06-09T07:24:09.052Z,162.33
2018-06-09T07:26:37.403Z,166.10
2018-06-09T07:29:05.731Z,152.43
2018-06-09T07:31:34.107Z,171.50
2018-06-09T07:34:02.429Z,165.27
2018-06-09T07:36:30.779Z,168.20
2018-06-09T07:38:59.115Z,151.47
2018-06-09T07:41:27.458Z,151.93
2018-06-09T07:43:55.802Z,149.90
2018-06-09T07:46:24.183Z,156.23
2018-06-09T07:48:52.507Z,146.50
2018-06-09T07:51:20.856Z,137.60
2018-06-09T07:53:49.171Z,144.97
2018-06-09T07:56:17.517Z,144.07
2018-06-09T07:58:45.834Z,136.43
2018-06-09T08:01:14.178Z,128.33
2018-06-09T08:03:42.514Z,129.87
2018-06-09T08:06:10.867Z,117.57
2018-06-09T08:08:39.196Z,108.20
2018-06-09T08:11:07.531Z,105.73
2018-06-09T08:13:35.856Z,99.53
2018-06-09T08:16:04.194Z,105.47
2018-06-09T08:18:32.513Z,96.83
2018-06-09T08:21:00.851Z,89.90
2018-06-09T08:23:29.170Z,95.17
2018-06-09T08:25:57.503Z,100.77
2018-06-09T08:28:25.830Z,92.20
2018-06-09T08:30:54.167Z,97.20
2018-06-09T08:33:22.483Z,102.33
2018-06-09T08:35:50.831Z,89.43
2018-06-09T08:38:19.176Z,82.17
2018-06-09T08:40:47.512Z,81.27
2018-06-09T08:43:15.956Z,97.03
2018-06-09T08:45:44.335Z,89.87
2018-06-09T08:48:12.699Z,91.60
2018-06-09T08:50:41.050Z,83.37
2018-06-09T08:53:09.401Z,83.20
2018-06-09T08:55:37.728Z,80.00
2018-06-09T08:58:06.168Z,76.73
2018-06-09T09:00:34.513Z,83.20
2018-06-09T09:03:02.907Z,86.73
2018-06-09T09:05:31.257Z,83.70
2018-06-09T09:07:59.602Z,82.57
2018-06-09T09:10:27.935Z,76.90
2018-06-09T09:12:56.279Z,79.60
2018-06-09T09:15:24.602Z,73.17
2018-06-09T09:17:52.959Z,81.70
2018-06-09T09:20:21.313Z,73.37
2018-06-09T09:22:49.656Z,76.67
2018-06-09T09:25:17.984Z,74.57
2018-06-09T09:27:46.330Z,77.70
2018-06-09T09:30:14.671Z,73.87
2018-06-09T09:32:43.024Z,71.70
2018-06-09T09:35:11.351Z,67.27
2018-06-09T09:37:39.686Z,67.90
2018-06-09T09:40:08.027Z,71.43
2018-06-09T09:42:36.379Z,80.17
2018-06-09T09:45:04.795Z,66.73
2018-06-09T09:47:33.136Z,72.80
2018-06-09T09:50:01.467Z,64.70
2018-06-09T09:52:29.816Z,74.50
2018-06-09T09:54:58.156Z,67.87
2018-06-09T09:57:26.491Z,71.00
2018-06-09T09:59:54.819Z,68.97
2018-06-09T10:02:23.168Z,69.33
2018-06-09T10:04:51.483Z,64.03
2018-06-09T10:07:19.823Z,63.07
2018-06-09T10:09:47.884Z,64.27
2018-06-09T10:12:16.230Z,59.73
2018-06-09T10:14:44.563Z,54.70
2018-06-09T10:17:12.983Z,60.17
2018-06-09T10:19:41.315Z,61.83
2018-06-09T10:22:09.704Z,57.07
2018-06-09T10:24:38.019Z,60.60
2018-06-09T10:27:06.539Z,59.33
2018-06-09T10:29:34.851Z,57.20
2018-06-09T10:32:03.156Z,52.60
2018-06-09T10:34:31.478Z,56.10
2018-06-09T10:36:59.808Z,55.60
2018-06-09T10:39:28.159Z,54.63
2018-06-09T10:41:56.470Z,55.97
2018-06-09T10:44:24.819Z,50.50
2018-06-09T10:46:53.160Z,56.50
2018-06-09T10:49:21.543Z,54.00
2018-06-09T10:51:49.868Z,54.63
2018-06-09T10:54:18.211Z,56.50
2018-06-09T10:56:46.531Z,50.13
2018-06-09T10:59:14.966Z,51.70
2018-06-09T11:01:43.279Z,49.47
2018-06-09T11:04:11.624Z,50.30
2018-06-09T11:06:39.961Z,51.30
2018-06-09T11:09:08.313Z,50.57
2018-06-09T11:11:36.642Z,45.73
2018-06-09T11:14:05.060Z,45.80
2018-06-09T11:16:33.375Z,47.93
2018-06-09T11:19:01.711Z,44.40
2018-06-09T11:21:30.032Z,46.57
2018-06-09T11:23:58.562Z,49.13
2018-06-09T11:26:26.874Z,45.53
2018-06-09T11:28:55.223Z,41.40
2018-06-09T11:31:23.539Z,45.60
2018-06-09T11:33:51.874Z,45.73
2018-06-09T11:36:20.191Z,44.43
2018-06-09T11:38:48.530Z,44.67
2018-06-09T11:41:16.850Z,43.63
2018-06-09T11:43:45.339Z,42.77
2018-06-09T11:46:13.687Z,41.60
2018-06-09T11:48:42.047Z,43.43
2018-06-09T11:51:10.383Z,48.27
2018-06-09T11:53:38.738Z,46.93
2018-06-09T11:56:07.059Z,45.43
2018-06-09T11:58:35.419Z,42.07
2018-06-09T12:01:03.767Z,45.73
2018-06-09T12:03:32.151Z,42.37
2018-06-09T12:06:00.492Z,38.07
2018-06-09T12:08:28.839Z,41.73
2018-06-09T12:10:57.218Z,37.30
2018-06-09T12:13:25.532Z,43.30
2018-06-09T12:15:53.865Z,42.13
2018-06-09T12:18:22.207Z,42.20
2018-06-09T12:20:50.541Z,39.10
2018-06-09T12:23:18.891Z,39.40
2018-06-09T12:25:47.228Z,36.93
2018-06-09T12:28:15.567Z,40.00
2018-06-09T12:30:43.899Z,36.37
2018-06-09T12:33:12.260Z,34.43
2018-06-09T12:35:40.593Z,38.00
2018-06-09T12:38:08.922Z,34.43
2018-06-09T12:40:37.263Z,35.17
2018-06-09T12:43:05.609Z,36.80
2018-06-09T12:45:33.971Z,32.70
2018-06-09T12:48:02.300Z,35.47
2018-06-09T12:50:30.647Z,30.53
2018-06-09T12:52:58.971Z,35.70
2018-06-09T12:55:27.345Z,32.30
2018-06-09T12:57:55.746Z,38.63
2018-06-09T13:00:24.091Z,32.70
2018-06-09T13:02:52.467Z,31.20
2018-06-09T13:05:20.799Z,34.63
2018-06-09T13:07:49.139Z,32.23
2018-06-09T13:10:17.475Z,34.30
2018-06-09T13:12:45.815Z,32.43
2018-06-09T13:15:14.155Z,34.70
2018-06-09T13:17:42.471Z,34.33
2018-06-09T13:20:10.803Z,30.37
2018-06-09T13:22:39.123Z,32.47
2018-06-09T13:25:07.495Z,31.73
2018-06-09T13:27:35.810Z,33.60
2018-06-09T13:30:04.239Z,34.53
2018-06-09T13:32:32.571Z,29.83
2018-06-09T13:35:00.911Z,30.23
2018-06-09T13:37:29.231Z,27.33
2018-06-09T13:39:57.571Z,32.57
2018-06-09T13:42:25.927Z,31.13
2018-06-09T13:44:54.271Z,30.70
2018-06-09T13:47:22.759Z,30.07
2018-06-09T13:49:51.107Z,34.00
2018-06-09T13:52:19.432Z,27.73
2018-06-09T13:54:47.791Z,29.67
2018-06-09T13:57:16.126Z,29.50
2018-06-09T13:59:44.527Z,30.60
2018-06-09T14:02:12.886Z,28.90
2018-06-09T14:04:41.230Z,31.80
2018-06-09T14:07:09.563Z,39.80
2018-06-09T14:09:37.903Z,27.67
2018-06-09T14:12:06.263Z,28.50
2018-06-09T14:14:34.614Z,28.37
2018-06-09T14:17:03.015Z,29.50
2018-06-09T14:19:31.480Z,28.83
2018-06-09T14:21:59.807Z,30.63
2018-06-09T14:24:28.218Z,31.10
2018-06-09T14:26:56.625Z,35.07
2018-06-09T14:29:24.911Z,27.60
2018-06-09T14:31:53.243Z,29.73
2018-06-09T14:34:21.607Z,31.23
2018-06-09T14:36:49.950Z,25.10
2018-06-09T14:39:18.293Z,30.20
2018-06-09T14:41:46.672Z,28.37
2018-06-09T14:44:15.967Z,27.57
2018-06-09T14:46:44.345Z,31.60
2018-06-09T14:49:12.675Z,26.07
2018-06-09T14:51:41.066Z,28.60
2018-06-09T14:54:09.379Z,29.37
2018-06-09T14:56:37.724Z,30.50
2018-06-09T14:59:06.161Z,26.10
2018-06-09T15:01:34.507Z,26.03
2018-06-09T15:04:02.839Z,24.73
2018-06-09T15:06:31.187Z,27.70
2018-06-09T15:08:59.523Z,26.17
2018-06-09T15:11:27.926Z,24.20
2018-06-09T15:13:56.214Z,24.10
2018-06-09T15:16:24.559Z,23.60
2018-06-09T15:18:52.879Z,24.17
2018-06-09T15:21:21.232Z,22.83
2018-06-09T15:23:49.564Z,24.50
2018-06-09T15:26:17.927Z,24.27
2018-06-09T15:28:46.252Z,24.40
2018-06-09T15:31:14.610Z,25.00
2018-06-09T15:33:43.003Z,22.50
2018-06-09T15:36:11.311Z,22.47
2018-06-09T15:38:39.631Z,21.93
2018-06-09T15:41:07.698Z,23.10
2018-06-09T15:43:36.055Z,22.40
2018-06-09T15:46:04.451Z,23.43
2018-06-09T15:48:32.854Z,22.10
2018-06-09T15:51:01.207Z,20.40
2018-06-09T15:53:29.527Z,20.27
2018-06-09T15:55:57.875Z,20.33
2018-06-09T15:58:26.202Z,22.93
2018-06-09T16:00:54.558Z,20.67
2018-06-09T16:03:22.893Z,20.90
2018-06-09T16:05:51.239Z,21.67
2018-06-09T16:08:19.578Z,22.57
2018-06-09T16:10:47.980Z,22.23
2018-06-09T16:13:16.313Z,21.40
2018-06-09T16:15:44.663Z,24.10
2018-06-09T16:18:12.988Z,22.13
2018-06-09T16:20:41.341Z,23.97
2018-06-09T16:23:09.688Z,22.23
2018-06-09T16:25:38.043Z,21.10
2018-06-09T16:28:06.366Z,22.20
2018-06-09T16:30:34.719Z,24.70
2018-06-09T16:33:03.075Z,24.67
2018-06-09T16:35:31.439Z,25.13
2018-06-09T16:37:59.769Z,12.07
2018-06-09T16:40:28.108Z,9.93
2018-06-09T16:42:56.451Z,10.03
2018-06-09T16:45:24.811Z,7.93
2018-06-09T16:47:53.156Z,7.23
2018-06-09T16:50:21.475Z,7.90
2018-06-09T16:52:49.815Z,8.10
2018-06-09T16:55:18.151Z,7.93
2018-06-09T16:57:46.491Z,8.30
2018-06-09T17:00:14.819Z,7.47
2018-06-09T17:02:43.171Z,8.03
2018-06-09T17:05:11.513Z,8.07
2018-06-09T17:07:39.860Z,8.63
2018-06-09T17:10:08.203Z,18.43
2018-06-09T17:12:36.538Z,7.53
2018-06-09T17:15:04.925Z,8.80
2018-06-09T17:17:33.275Z,7.50
2018-06-09T17:20:01.618Z,8.20
2018-06-09T17:22:30.004Z,7.43
2018-06-09T17:24:58.327Z,7.60
2018-06-09T17:27:26.695Z,7.90
2018-06-09T17:29:55.011Z,7.13
2018-06-09T17:32:23.452Z,7.40
2018-06-09T17:34:51.782Z,7.87
2018-06-09T17:37:20.127Z,7.47
2018-06-09T17:39:48.455Z,8.23
2018-06-09T17:42:16.795Z,7.83
2018-06-09T17:44:45.116Z,7.40
2018-06-09T17:47:13.470Z,7.60
2018-06-09T17:49:41.799Z,8.00
2018-06-09T17:52:10.147Z,8.07
2018-06-09T17:54:38.468Z,8.27
2018-06-09T17:57:06.839Z,8.50
2018-06-09T17:59:35.167Z,8.03
2018-06-09T18:02:03.875Z,8.20
2018-06-09T18:04:32.199Z,9.10
2018-06-09T18:07:00.631Z,9.50
2018-06-09T18:09:28.903Z,9.97
2018-06-09T18:11:57.253Z,11.07
2018-06-09T18:14:25.571Z,12.33
2018-06-09T18:16:53.919Z,15.00
2018-06-09T18:19:22.312Z,19.30
2018-06-09T18:21:50.619Z,19.37
2018-06-09T18:24:19.019Z,25.20
2018-06-09T18:26:47.471Z,27.93
2018-06-09T18:29:15.814Z,27.97
2018-06-09T18:31:44.158Z,27.33
2018-06-09T18:34:12.539Z,29.80
2018-06-09T18:36:40.908Z,29.30
2018-06-09T18:39:09.742Z,31.40
2018-06-09T18:41:38.094Z,28.67
2018-06-09T18:44:06.449Z,32.10
2018-06-09T18:46:34.799Z,36.80
2018-06-09T18:49:03.138Z,36.70
2018-06-09T18:51:31.455Z,38.43
2018-06-09T18:53:59.799Z,39.93
2018-06-09T18:56:28.271Z,40.13
2018-06-09T18:58:56.615Z,39.67
2018-06-09T19:01:25.015Z,37.97
2018-06-09T19:03:53.423Z,40.70
2018-06-09T19:06:21.746Z,40.20
2018-06-09T19:08:50.096Z,42.37
2018-06-09T19:11:18.495Z,41.13
2018-06-09T19:13:46.807Z,44.73
2018-06-09T19:16:15.262Z,41.30
2018-06-09T19:18:43.599Z,44.97
2018-06-09T19:21:11.923Z,44.30
2018-06-09T19:23:40.312Z,45.17
2018-06-09T19:26:08.632Z,46.27
2018-06-09T19:28:37.092Z,42.40
2018-06-09T19:31:05.435Z,41.77
2018-06-09T19:33:33.794Z,42.00
2018-06-09T19:36:02.144Z,41.20
2018-06-09T19:38:30.502Z,42.60
2018-06-09T19:40:58.822Z,41.03
2018-06-09T19:43:27.171Z,44.57
2018-06-09T19:45:55.523Z,41.20
2018-06-09T19:48:23.859Z,40.83
2018-06-09T19:50:52.208Z,42.23
2018-06-09T19:53:20.314Z,42.70
2018-06-09T19:55:48.660Z,43.00
2018-06-09T19:58:17.004Z,46.93
2018-06-09T20:00:45.340Z,47.70
2018-06-09T20:03:13.698Z,46.67
2018-06-09T20:05:42.023Z,48.80
2018-06-09T20:08:10.363Z,44.90
2018-06-09T20:10:38.771Z,43.87
2018-06-09T20:13:07.115Z,45.60
2018-06-09T20:15:35.427Z,46.63
2018-06-09T20:18:03.778Z,48.67
2018-06-09T20:20:32.102Z,47.13
2018-06-09T20:23:00.539Z,48.53
2018-06-09T20:25:28.854Z,48.57
2018-06-09T20:27:57.215Z,51.83
2018-06-09T20:30:25.547Z,49.10
2018-06-09T20:32:53.886Z,46.07
2018-06-09T20:35:22.307Z,46.70
2018-06-09T20:37:50.671Z,46.33
2018-06-09T20:40:19.011Z,46.80
2018-06-09T20:42:47.345Z,50.37
2018-06-09T20:45:15.703Z,51.67
2018-06-09T20:47:44.055Z,51.27
2018-06-09T20:50:12.411Z,51.70
2018-06-09T20:52:40.734Z,49.70
2018-06-09T20:55:09.083Z,49.30
2018-06-09T20:57:37.441Z,47.33
2018-06-09T21:00:05.811Z,46.77
2018-06-09T21:02:34.135Z,44.27
2018-06-09T21:05:02.489Z,47.53
2018-06-09T21:07:30.827Z,45.20
2018-06-09T21:09:59.175Z,75.97
2018-06-09T21:12:27.519Z,105.60
2018-06-09T21:14:55.862Z,88.33
2018-06-09T21:17:24.194Z,68.77
2018-06-09T21:19:52.539Z,63.63
2018-06-09T21:22:20.887Z,54.47
2018-06-09T21:24:49.235Z,51.50
2018-06-09T21:27:23.042Z,49.00
2018-06-09T21:29:56.919Z,47.07
2018-06-09T21:32:29.224Z,77.10
2018-06-09T21:35:14.571Z,59.67
2018-06-09T21:37:42.662Z,52.50
2018-06-09T21:40:30.443Z,50.03
2018-06-09T21:43:04.231Z,53.13
2018-06-09T21:45:37.991Z,50.07
2018-06-09T21:48:06.331Z,48.47
2018-06-09T21:50:34.410Z,50.27
2018-06-09T21:53:02.735Z,50.60
2018-06-09T21:55:31.087Z,52.60
2018-06-09T21:57:59.415Z,55.63
2018-06-09T22:00:27.775Z,50.77
2018-06-09T22:02:56.369Z,47.33
2018-06-09T22:05:24.831Z,48.63
2018-06-09T22:07:53.161Z,51.53
2018-06-09T22:10:21.543Z,48.27
2018-06-09T22:12:49.882Z,48.07
2018-06-09T22:15:18.232Z,47.87
2018-06-09T22:17:46.572Z,47.47
2018-06-09T22:20:14.923Z,47.77
2018-06-09T22:22:43.247Z,44.43
2018-06-09T22:25:11.591Z,49.83
2018-06-09T22:27:39.927Z,49.70
2018-06-09T22:30:08.302Z,49.40
2018-06-09T22:32:36.636Z,50.67
2018-06-09T22:35:05.016Z,49.33
2018-06-09T22:37:33.387Z,45.67
2018-06-09T22:40:01.736Z,38.23
2018-06-09T22:42:30.067Z,31.87
2018-06-09T22:44:58.418Z,33.73
2018-06-09T22:47:26.755Z,31.60
2018-06-09T22:49:55.099Z,29.20
2018-06-09T22:52:23.423Z,28.83
2018-06-09T22:54:51.770Z,20.23
2018-06-09T22:57:20.108Z,16.10
2018-06-09T22:59:48.439Z,19.40
2018-06-09T23:02:16.823Z,22.83
2018-06-09T23:04:45.123Z,20.60
2018-06-09T23:07:13.444Z,22.53
2018-06-09T23:09:41.783Z,24.43
2018-06-09T23:12:10.108Z,23.40
2018-06-09T23:14:38.451Z,23.70
2018-06-09T23:17:06.767Z,25.30
2018-06-09T23:19:35.117Z,27.03
2018-06-09T23:22:03.443Z,23.80
2018-06-09T23:24:31.779Z,21.73
2018-06-09T23:27:00.108Z,28.47
2018-06-09T23:29:28.438Z,28.00
2018-06-09T23:31:56.780Z,31.80
2018-06-09T23:34:25.102Z,34.30
2018-06-09T23:36:53.447Z,35.70
2018-06-09T23:39:22.602Z,41.77
2018-06-09T23:41:51.091Z,44.70
2018-06-09T23:44:19.415Z,45.97
2018-06-09T23:46:47.767Z,44.67
2018-06-09T23:49:16.084Z,41.87
2018-06-09T23:51:44.423Z,38.93
2018-06-09T23:54:12.750Z,33.00
2018-06-09T23:56:41.251Z,31.37
2018-06-09T23:59:09.567Z,31.67
